sensor_id;sensor_type;location;lat;lon;timestamp;P1;durP1;ratioP1;P2;durP2;ratioP2
55469;SDS011;41334;47.872;16.384;2022-07-23T00:02:28;10.13;;;5.57;;
55469;SDS011;41334;47.872;16.384;2022-07-23T00:05:30;10.98;;;5.43;;
55469;SDS011;41334;47.872;16.384;2022-07-23T00:08:32;6.45;;;5.53;;
55469;SDS011;41334;47.872;16.384;2022-07-23T00:11:34;7.53;;;6.10;;
55469;SDS011;41334;47.872;16.384;2022-07-23T00:14:35;9.93;;;6.28;;
55469;SDS011;41334;47.872;16.384;2022-07-23T00:17:37;8.15;;;6.30;;
55469;SDS011;41334;47.872;16.384;2022-07-23T00:20:39;9.05;;;6.07;;
55469;SDS011;41334;47.872;16.384;2022-07-23T00:23:41;10.52;;;5.90;;
55469;SDS011;41334;47.872;16.384;2022-07-23T00:26:42;7.95;;;6.00;;
55469;SDS011;41334;47.872;16.384;2022-07-23T00:29:44;8.38;;;5.78;;
55469;SDS011;41334;47.872;16.384;2022-07-23T00:35:57;12.43;;;7.22;;
55469;SDS011;41334;47.872;16.384;2022-07-23T00:38:58;17.52;;;7.25;;
55469;SDS011;41334;47.872;16.384;2022-07-23T00:42:01;16.85;;;7.10;;
55469;SDS011;41334;47.872;16.384;2022-07-23T00:45:04;9.85;;;6.57;;
55469;SDS011;41334;47.872;16.384;2022-07-23T00:48:06;9.40;;;7.22;;
55469;SDS011;41334;47.872;16.384;2022-07-23T00:51:08;13.23;;;7.25;;
55469;SDS011;41334;47.872;16.384;2022-07-23T00:54:10;14.00;;;7.00;;
55469;SDS011;41334;47.872;16.384;2022-07-23T00:57:12;9.82;;;6.93;;
55469;SDS011;41334;47.872;16.384;2022-07-23T01:00:14;13.07;;;7.28;;
55469;SDS011;41334;47.872;16.384;2022-07-23T01:03:16;10.85;;;7.28;;
55469;SDS011;41334;47.872;16.384;2022-07-23T01:06:18;10.00;;;7.57;;
55469;SDS011;41334;47.872;16.384;2022-07-23T01:09:20;11.30;;;7.30;;
55469;SDS011;41334;47.872;16.384;2022-07-23T01:12:22;11.98;;;7.95;;
55469;SDS011;41334;47.872;16.384;2022-07-23T01:15:24;8.95;;;7.55;;
55469;SDS011;41334;47.872;16.384;2022-07-23T01:18:26;11.48;;;7.78;;
55469;SDS011;41334;47.872;16.384;2022-07-23T01:21:28;11.57;;;8.88;;
55469;SDS011;41334;47.872;16.384;2022-07-23T01:24:32;13.45;;;8.98;;
55469;SDS011;41334;47.872;16.384;2022-07-23T01:27:38;15.05;;;8.55;;
55469;SDS011;41334;47.872;16.384;2022-07-23T01:30:40;16.95;;;9.02;;
55469;SDS011;41334;47.872;16.384;2022-07-23T01:33:42;10.25;;;8.25;;
55469;SDS011;41334;47.872;16.384;2022-07-23T01:36:44;11.73;;;7.93;;
55469;SDS011;41334;47.872;16.384;2022-07-23T01:39:46;12.15;;;8.75;;
55469;SDS011;41334;47.872;16.384;2022-07-23T01:42:48;10.85;;;8.43;;
55469;SDS011;41334;47.872;16.384;2022-07-23T01:45:51;17.25;;;7.80;;
55469;SDS011;41334;47.872;16.384;2022-07-23T01:48:54;13.50;;;7.43;;
55469;SDS011;41334;47.872;16.384;2022-07-23T01:52:16;18.27;;;7.75;;
55469;SDS011;41334;47.872;16.384;2022-07-23T01:55:22;20.25;;;7.35;;
55469;SDS011;41334;47.872;16.384;2022-07-23T01:58:25;12.57;;;6.93;;
55469;SDS011;41334;47.872;16.384;2022-07-23T02:01:28;14.40;;;7.55;;
55469;SDS011;41334;47.872;16.384;2022-07-23T02:04:30;15.73;;;7.18;;
55469;SDS011;41334;47.872;16.384;2022-07-23T02:07:33;10.98;;;7.07;;
55469;SDS011;41334;47.872;16.384;2022-07-23T02:10:35;8.05;;;6.60;;
55469;SDS011;41334;47.872;16.384;2022-07-23T02:13:37;10.18;;;6.75;;
55469;SDS011;41334;47.872;16.384;2022-07-23T02:16:39;7.90;;;6.57;;
55469;SDS011;41334;47.872;16.384;2022-07-23T02:19:41;7.93;;;6.55;;
55469;SDS011;41334;47.872;16.384;2022-07-23T02:22:43;11.52;;;7.35;;
55469;SDS011;41334;47.872;16.384;2022-07-23T02:25:45;8.77;;;6.22;;
55469;SDS011;41334;47.872;16.384;2022-07-23T02:28:47;7.53;;;6.30;;
55469;SDS011;41334;47.872;16.384;2022-07-23T02:31:48;7.38;;;6.22;;
55469;SDS011;41334;47.872;16.384;2022-07-23T02:34:50;8.38;;;7.00;;
55469;SDS011;41334;47.872;16.384;2022-07-23T02:37:54;9.68;;;6.78;;
55469;SDS011;41334;47.872;16.384;2022-07-23T02:40:56;10.88;;;6.93;;
55469;SDS011;41334;47.872;16.384;2022-07-23T02:43:58;8.02;;;6.78;;
55469;SDS011;41334;47.872;16.384;2022-07-23T02:47:01;10.63;;;7.13;;
55469;SDS011;41334;47.872;16.384;2022-07-23T02:50:03;8.27;;;6.63;;
55469;SDS011;41334;47.872;16.384;2022-07-23T02:53:08;8.97;;;6.87;;
55469;SDS011;41334;47.872;16.384;2022-07-23T02:56:13;10.90;;;6.55;;
55469;SDS011;41334;47.872;16.384;2022-07-23T02:59:16;14.27;;;7.05;;
55469;SDS011;41334;47.872;16.384;2022-07-23T03:02:17;7.95;;;6.18;;
55469;SDS011;41334;47.872;16.384;2022-07-23T03:05:19;9.68;;;6.85;;
55469;SDS011;41334;47.872;16.384;2022-07-23T03:08:21;10.93;;;6.65;;
55469;SDS011;41334;47.872;16.384;2022-07-23T03:11:25;14.23;;;6.78;;
55469;SDS011;41334;47.872;16.384;2022-07-23T03:14:27;9.90;;;6.47;;
55469;SDS011;41334;47.872;16.384;2022-07-23T03:17:30;11.70;;;6.22;;
55469;SDS011;41334;47.872;16.384;2022-07-23T03:20:31;10.88;;;6.50;;
55469;SDS011;41334;47.872;16.384;2022-07-23T03:23:33;9.35;;;6.43;;
55469;SDS011;41334;47.872;16.384;2022-07-23T03:26:36;10.18;;;7.20;;
55469;SDS011;41334;47.872;16.384;2022-07-23T03:29:38;10.90;;;6.57;;
55469;SDS011;41334;47.872;16.384;2022-07-23T03:32:41;12.23;;;6.55;;
55469;SDS011;41334;47.872;16.384;2022-07-23T03:35:43;8.07;;;6.53;;
55469;SDS011;41334;47.872;16.384;2022-07-23T03:38:53;10.27;;;7.38;;
55469;SDS011;41334;47.872;16.384;2022-07-23T03:41:56;9.45;;;6.75;;
55469;SDS011;41334;47.872;16.384;2022-07-23T03:44:58;11.30;;;6.45;;
55469;SDS011;41334;47.872;16.384;2022-07-23T03:48:00;9.32;;;6.35;;
55469;SDS011;41334;47.872;16.384;2022-07-23T03:51:03;8.07;;;6.30;;
55469;SDS011;41334;47.872;16.384;2022-07-23T03:54:04;9.57;;;6.45;;
55469;SDS011;41334;47.872;16.384;2022-07-23T03:57:06;7.50;;;6.03;;
55469;SDS011;41334;47.872;16.384;2022-07-23T04:00:08;9.15;;;7.13;;
55469;SDS011;41334;47.872;16.384;2022-07-23T04:03:15;8.75;;;6.32;;
55469;SDS011;41334;47.872;16.384;2022-07-23T04:06:17;8.82;;;6.18;;
55469;SDS011;41334;47.872;16.384;2022-07-23T04:09:20;8.25;;;6.18;;
55469;SDS011;41334;47.872;16.384;2022-07-23T04:12:23;8.05;;;6.55;;
55469;SDS011;41334;47.872;16.384;2022-07-23T04:15:26;11.40;;;7.20;;
55469;SDS011;41334;47.872;16.384;2022-07-23T04:18:28;8.63;;;6.25;;
55469;SDS011;41334;47.872;16.384;2022-07-23T04:21:40;10.07;;;6.78;;
55469;SDS011;41334;47.872;16.384;2022-07-23T04:24:43;17.23;;;6.72;;
55469;SDS011;41334;47.872;16.384;2022-07-23T04:27:45;9.73;;;6.53;;
55469;SDS011;41334;47.872;16.384;2022-07-23T04:30:46;10.50;;;6.68;;
55469;SDS011;41334;47.872;16.384;2022-07-23T04:33:50;10.85;;;6.72;;
55469;SDS011;41334;47.872;16.384;2022-07-23T04:36:52;10.00;;;7.22;;
55469;SDS011;41334;47.872;16.384;2022-07-23T04:39:55;7.85;;;6.55;;
55469;SDS011;41334;47.872;16.384;2022-07-23T04:42:59;9.10;;;6.97;;
55469;SDS011;41334;47.872;16.384;2022-07-23T04:46:01;10.95;;;7.78;;
55469;SDS011;41334;47.872;16.384;2022-07-23T04:49:09;10.15;;;7.40;;
55469;SDS011;41334;47.872;16.384;2022-07-23T04:52:11;9.65;;;7.70;;
55469;SDS011;41334;47.872;16.384;2022-07-23T04:55:15;18.63;;;7.85;;
55469;SDS011;41334;47.872;16.384;2022-07-23T04:58:17;16.48;;;7.70;;
55469;SDS011;41334;47.872;16.384;2022-07-23T05:01:19;11.85;;;7.75;;
55469;SDS011;41334;47.872;16.384;2022-07-23T05:04:21;10.25;;;7.72;;
55469;SDS011;41334;47.872;16.384;2022-07-23T05:07:25;11.43;;;7.47;;
55469;SDS011;41334;47.872;16.384;2022-07-23T05:10:28;9.10;;;7.50;;
55469;SDS011;41334;47.872;16.384;2022-07-23T05:13:30;11.07;;;7.80;;
55469;SDS011;41334;47.872;16.384;2022-07-23T05:16:32;15.73;;;8.00;;
55469;SDS011;41334;47.872;16.384;2022-07-23T05:19:42;10.80;;;7.40;;
55469;SDS011;41334;47.872;16.384;2022-07-23T05:22:44;10.38;;;7.45;;
55469;SDS011;41334;47.872;16.384;2022-07-23T05:25:46;10.75;;;7.40;;
55469;SDS011;41334;47.872;16.384;2022-07-23T05:28:50;9.68;;;7.78;;
55469;SDS011;41334;47.872;16.384;2022-07-23T05:31:54;11.40;;;7.75;;
55469;SDS011;41334;47.872;16.384;2022-07-23T05:34:56;14.85;;;7.55;;
55469;SDS011;41334;47.872;16.384;2022-07-23T05:37:58;11.88;;;7.70;;
55469;SDS011;41334;47.872;16.384;2022-07-23T05:41:00;10.20;;;7.15;;
55469;SDS011;41334;47.872;16.384;2022-07-23T05:44:03;12.23;;;6.95;;
55469;SDS011;41334;47.872;16.384;2022-07-23T05:47:10;10.43;;;7.10;;
55469;SDS011;41334;47.872;16.384;2022-07-23T05:50:14;12.47;;;7.60;;
55469;SDS011;41334;47.872;16.384;2022-07-23T05:53:26;16.27;;;6.38;;
55469;SDS011;41334;47.872;16.384;2022-07-23T05:56:40;9.00;;;5.72;;
55469;SDS011;41334;47.872;16.384;2022-07-23T05:59:42;8.55;;;6.00;;
55469;SDS011;41334;47.872;16.384;2022-07-23T06:02:44;8.07;;;6.15;;
55469;SDS011;41334;47.872;16.384;2022-07-23T06:05:52;9.18;;;5.50;;
55469;SDS011;41334;47.872;16.384;2022-07-23T06:08:57;8.23;;;6.65;;
55469;SDS011;41334;47.872;16.384;2022-07-23T06:11:59;9.68;;;6.10;;
55469;SDS011;41334;47.872;16.384;2022-07-23T06:15:00;8.18;;;6.25;;
55469;SDS011;41334;47.872;16.384;2022-07-23T06:18:03;10.80;;;6.78;;
55469;SDS011;41334;47.872;16.384;2022-07-23T06:21:05;8.35;;;5.57;;
55469;SDS011;41334;47.872;16.384;2022-07-23T06:24:26;6.80;;;4.90;;
55469;SDS011;41334;47.872;16.384;2022-07-23T06:27:29;7.57;;;5.15;;
55469;SDS011;41334;47.872;16.384;2022-07-23T06:30:30;10.00;;;6.35;;
55469;SDS011;41334;47.872;16.384;2022-07-23T06:33:40;25.05;;;9.02;;
55469;SDS011;41334;47.872;16.384;2022-07-23T06:36:41;10.65;;;6.10;;
55469;SDS011;41334;47.872;16.384;2022-07-23T06:39:44;11.27;;;6.00;;
55469;SDS011;41334;47.872;16.384;2022-07-23T06:42:46;9.15;;;6.30;;
55469;SDS011;41334;47.872;16.384;2022-07-23T06:45:56;6.15;;;5.53;;
55469;SDS011;41334;47.872;16.384;2022-07-23T06:48:58;8.73;;;6.80;;
55469;SDS011;41334;47.872;16.384;2022-07-23T06:52:03;11.52;;;5.80;;
55469;SDS011;41334;47.872;16.384;2022-07-23T06:55:07;5.45;;;4.75;;
55469;SDS011;41334;47.872;16.384;2022-07-23T06:58:09;7.82;;;4.93;;
55469;SDS011;41334;47.872;16.384;2022-07-23T07:01:11;8.25;;;4.70;;
55469;SDS011;41334;47.872;16.384;2022-07-23T07:04:15;11.52;;;4.35;;
55469;SDS011;41334;47.872;16.384;2022-07-23T07:07:17;4.82;;;3.92;;
55469;SDS011;41334;47.872;16.384;2022-07-23T07:10:19;4.60;;;3.28;;
55469;SDS011;41334;47.872;16.384;2022-07-23T07:13:21;6.88;;;3.53;;
55469;SDS011;41334;47.872;16.384;2022-07-23T07:16:22;7.05;;;2.95;;
55469;SDS011;41334;47.872;16.384;2022-07-23T07:19:31;5.75;;;2.35;;
55469;SDS011;41334;47.872;16.384;2022-07-23T07:22:32;7.40;;;2.90;;
55469;SDS011;41334;47.872;16.384;2022-07-23T07:25:34;3.28;;;2.30;;
55469;SDS011;41334;47.872;16.384;2022-07-23T07:28:36;7.63;;;2.13;;
55469;SDS011;41334;47.872;16.384;2022-07-23T07:31:38;3.13;;;1.95;;
55469;SDS011;41334;47.872;16.384;2022-07-23T07:34:40;2.40;;;1.67;;
55469;SDS011;41334;47.872;16.384;2022-07-23T07:37:42;2.65;;;1.48;;
55469;SDS011;41334;47.872;16.384;2022-07-23T07:40:43;2.45;;;1.80;;
55469;SDS011;41334;47.872;16.384;2022-07-23T07:43:45;7.93;;;2.25;;
55469;SDS011;41334;47.872;16.384;2022-07-23T07:46:47;3.72;;;2.50;;
55469;SDS011;41334;47.872;16.384;2022-07-23T07:49:49;7.97;;;4.03;;
55469;SDS011;41334;47.872;16.384;2022-07-23T07:52:51;2.85;;;2.25;;
55469;SDS011;41334;47.872;16.384;2022-07-23T07:55:53;4.22;;;1.77;;
55469;SDS011;41334;47.872;16.384;2022-07-23T07:58:55;3.42;;;2.38;;
55469;SDS011;41334;47.872;16.384;2022-07-23T08:01:57;3.28;;;2.30;;
55469;SDS011;41334;47.872;16.384;2022-07-23T08:04:59;3.13;;;2.30;;
55469;SDS011;41334;47.872;16.384;2022-07-23T08:08:01;3.75;;;1.98;;
55469;SDS011;41334;47.872;16.384;2022-07-23T08:11:03;2.80;;;2.20;;
55469;SDS011;41334;47.872;16.384;2022-07-23T08:14:05;3.33;;;2.10;;
55469;SDS011;41334;47.872;16.384;2022-07-23T08:17:07;3.35;;;2.40;;
55469;SDS011;41334;47.872;16.384;2022-07-23T08:20:17;6.45;;;2.97;;
55469;SDS011;41334;47.872;16.384;2022-07-23T08:23:21;4.03;;;2.65;;
55469;SDS011;41334;47.872;16.384;2022-07-23T08:26:30;4.95;;;2.85;;
55469;SDS011;41334;47.872;16.384;2022-07-23T08:29:31;4.10;;;2.33;;
55469;SDS011;41334;47.872;16.384;2022-07-23T08:32:33;2.95;;;1.67;;
55469;SDS011;41334;47.872;16.384;2022-07-23T08:38:52;3.53;;;2.53;;
55469;SDS011;41334;47.872;16.384;2022-07-23T08:41:54;2.15;;;1.70;;
55469;SDS011;41334;47.872;16.384;2022-07-23T08:44:56;2.50;;;1.48;;
55469;SDS011;41334;47.872;16.384;2022-07-23T08:47:58;3.85;;;2.50;;
55469;SDS011;41334;47.872;16.384;2022-07-23T08:51:04;9.25;;;2.67;;
55469;SDS011;41334;47.872;16.384;2022-07-23T08:54:11;3.85;;;2.60;;
55469;SDS011;41334;47.872;16.384;2022-07-23T08:57:13;5.15;;;2.92;;
55469;SDS011;41334;47.872;16.384;2022-07-23T09:00:16;3.47;;;2.67;;
55469;SDS011;41334;47.872;16.384;2022-07-23T09:03:29;4.05;;;2.50;;
55469;SDS011;41334;47.872;16.384;2022-07-23T09:06:40;4.13;;;2.72;;
55469;SDS011;41334;47.872;16.384;2022-07-23T09:09:43;4.00;;;2.92;;
55469;SDS011;41334;47.872;16.384;2022-07-23T09:12:45;6.60;;;1.90;;
55469;SDS011;41334;47.872;16.384;2022-07-23T09:15:50;8.55;;;2.97;;
55469;SDS011;41334;47.872;16.384;2022-07-23T09:22:15;6.57;;;2.83;;
55469;SDS011;41334;47.872;16.384;2022-07-23T09:25:29;5.00;;;2.85;;
55469;SDS011;41334;47.872;16.384;2022-07-23T09:28:30;3.40;;;2.45;;
55469;SDS011;41334;47.872;16.384;2022-07-23T09:31:54;3.50;;;3.00;;
55469;SDS011;41334;47.872;16.384;2022-07-23T09:34:58;3.33;;;2.45;;
55469;SDS011;41334;47.872;16.384;2022-07-23T09:38:00;3.35;;;2.90;;
55469;SDS011;41334;47.872;16.384;2022-07-23T09:41:06;2.58;;;2.15;;
55469;SDS011;41334;47.872;16.384;2022-07-23T09:44:10;4.10;;;3.00;;
55469;SDS011;41334;47.872;16.384;2022-07-23T09:47:25;4.13;;;2.72;;
55469;SDS011;41334;47.872;16.384;2022-07-23T09:50:32;7.25;;;2.85;;
55469;SDS011;41334;47.872;16.384;2022-07-23T09:53:33;4.22;;;2.88;;
55469;SDS011;41334;47.872;16.384;2022-07-23T09:56:35;3.92;;;2.72;;
55469;SDS011;41334;47.872;16.384;2022-07-23T09:59:39;3.08;;;2.67;;
55469;SDS011;41334;47.872;16.384;2022-07-23T10:02:41;5.70;;;2.97;;
55469;SDS011;41334;47.872;16.384;2022-07-23T10:06:01;2.70;;;2.25;;
55469;SDS011;41334;47.872;16.384;2022-07-23T10:09:23;3.17;;;2.75;;
55469;SDS011;41334;47.872;16.384;2022-07-23T10:12:48;3.17;;;2.70;;
55469;SDS011;41334;47.872;16.384;2022-07-23T10:16:07;2.78;;;2.50;;
55469;SDS011;41334;47.872;16.384;2022-07-23T10:19:09;2.90;;;2.50;;
55469;SDS011;41334;47.872;16.384;2022-07-23T10:22:13;3.90;;;2.97;;
55469;SDS011;41334;47.872;16.384;2022-07-23T10:25:27;4.85;;;3.40;;
55469;SDS011;41334;47.872;16.384;2022-07-23T10:31:58;4.57;;;3.20;;
55469;SDS011;41334;47.872;16.384;2022-07-23T10:35:13;3.28;;;2.45;;
55469;SDS011;41334;47.872;16.384;2022-07-23T10:38:30;2.55;;;2.13;;
55469;SDS011;41334;47.872;16.384;2022-07-23T10:41:44;7.57;;;3.25;;
55469;SDS011;41334;47.872;16.384;2022-07-23T10:44:46;7.18;;;3.72;;
55469;SDS011;41334;47.872;16.384;2022-07-23T10:47:49;5.47;;;3.33;;
55469;SDS011;41334;47.872;16.384;2022-07-23T10:51:12;3.67;;;3.20;;
55469;SDS011;41334;47.872;16.384;2022-07-23T10:54:22;2.70;;;2.45;;
55469;SDS011;41334;47.872;16.384;2022-07-23T10:57:27;2.95;;;2.33;;
55469;SDS011;41334;47.872;16.384;2022-07-23T11:00:30;5.25;;;3.50;;
55469;SDS011;41334;47.872;16.384;2022-07-23T11:03:34;4.57;;;2.07;;
55469;SDS011;41334;47.872;16.384;2022-07-23T11:09:51;3.67;;;2.97;;
55469;SDS011;41334;47.872;16.384;2022-07-23T11:12:53;4.03;;;2.92;;
55469;SDS011;41334;47.872;16.384;2022-07-23T11:19:05;4.70;;;3.50;;
55469;SDS011;41334;47.872;16.384;2022-07-23T11:22:08;4.38;;;3.30;;
55469;SDS011;41334;47.872;16.384;2022-07-23T11:25:11;4.32;;;3.60;;
55469;SDS011;41334;47.872;16.384;2022-07-23T11:28:30;5.07;;;3.20;;
55469;SDS011;41334;47.872;16.384;2022-07-23T11:31:32;5.28;;;3.42;;
55469;SDS011;41334;47.872;16.384;2022-07-23T11:34:35;3.47;;;3.15;;
55469;SDS011;41334;47.872;16.384;2022-07-23T11:37:41;2.60;;;1.88;;
55469;SDS011;41334;47.872;16.384;2022-07-23T11:40:47;6.03;;;3.60;;
55469;SDS011;41334;47.872;16.384;2022-07-23T11:43:52;7.03;;;3.60;;
55469;SDS011;41334;47.872;16.384;2022-07-23T11:47:01;5.70;;;3.15;;
55469;SDS011;41334;47.872;16.384;2022-07-23T11:50:06;5.05;;;2.75;;
55469;SDS011;41334;47.872;16.384;2022-07-23T11:53:08;5.97;;;3.67;;
55469;SDS011;41334;47.872;16.384;2022-07-23T11:56:10;5.05;;;3.17;;
55469;SDS011;41334;47.872;16.384;2022-07-23T11:59:12;4.13;;;3.72;;
55469;SDS011;41334;47.872;16.384;2022-07-23T12:02:14;5.43;;;3.40;;
55469;SDS011;41334;47.872;16.384;2022-07-23T12:05:18;9.43;;;4.07;;
55469;SDS011;41334;47.872;16.384;2022-07-23T12:08:22;4.68;;;3.53;;
55469;SDS011;41334;47.872;16.384;2022-07-23T12:11:24;4.22;;;3.63;;
55469;SDS011;41334;47.872;16.384;2022-07-23T12:14:26;5.25;;;3.92;;
55469;SDS011;41334;47.872;16.384;2022-07-23T12:17:29;9.40;;;4.28;;
55469;SDS011;41334;47.872;16.384;2022-07-23T12:20:33;6.75;;;3.60;;
55469;SDS011;41334;47.872;16.384;2022-07-23T12:23:40;8.20;;;4.30;;
55469;SDS011;41334;47.872;16.384;2022-07-23T12:27:07;5.07;;;3.63;;
55469;SDS011;41334;47.872;16.384;2022-07-23T12:36:37;6.78;;;3.13;;
55469;SDS011;41334;47.872;16.384;2022-07-23T12:39:41;4.72;;;3.35;;
55469;SDS011;41334;47.872;16.384;2022-07-23T12:42:42;6.55;;;2.95;;
55469;SDS011;41334;47.872;16.384;2022-07-23T12:49:03;6.25;;;2.67;;
55469;SDS011;41334;47.872;16.384;2022-07-23T12:52:16;6.32;;;2.88;;
55469;SDS011;41334;47.872;16.384;2022-07-23T12:55:29;5.10;;;2.72;;
55469;SDS011;41334;47.872;16.384;2022-07-23T12:58:45;5.47;;;3.20;;
55469;SDS011;41334;47.872;16.384;2022-07-23T13:01:56;6.40;;;3.40;;
55469;SDS011;41334;47.872;16.384;2022-07-23T13:05:01;4.72;;;3.55;;
55469;SDS011;41334;47.872;16.384;2022-07-23T13:08:03;3.80;;;3.35;;
55469;SDS011;41334;47.872;16.384;2022-07-23T13:11:08;7.43;;;3.65;;
55469;SDS011;41334;47.872;16.384;2022-07-23T13:14:10;4.68;;;3.35;;
55469;SDS011;41334;47.872;16.384;2022-07-23T13:17:12;5.32;;;3.45;;
55469;SDS011;41334;47.872;16.384;2022-07-23T13:20:15;6.05;;;3.67;;
55469;SDS011;41334;47.872;16.384;2022-07-23T13:23:17;4.28;;;3.50;;
55469;SDS011;41334;47.872;16.384;2022-07-23T13:26:19;4.88;;;3.35;;
55469;SDS011;41334;47.872;16.384;2022-07-23T13:29:23;3.60;;;3.00;;
55469;SDS011;41334;47.872;16.384;2022-07-23T13:32:26;5.10;;;3.30;;
55469;SDS011;41334;47.872;16.384;2022-07-23T13:35:28;3.80;;;3.20;;
55469;SDS011;41334;47.872;16.384;2022-07-23T13:41:36;8.80;;;3.42;;
55469;SDS011;41334;47.872;16.384;2022-07-23T13:44:39;3.92;;;3.00;;
55469;SDS011;41334;47.872;16.384;2022-07-23T13:47:40;6.47;;;3.42;;
55469;SDS011;41334;47.872;16.384;2022-07-23T13:50:45;4.13;;;3.63;;
55469;SDS011;41334;47.872;16.384;2022-07-23T13:53:47;5.10;;;3.30;;
55469;SDS011;41334;47.872;16.384;2022-07-23T13:56:50;2.83;;;2.13;;
55469;SDS011;41334;47.872;16.384;2022-07-23T13:59:54;3.95;;;3.55;;
55469;SDS011;41334;47.872;16.384;2022-07-23T14:02:56;3.40;;;3.10;;
55469;SDS011;41334;47.872;16.384;2022-07-23T14:05:59;6.75;;;3.05;;
55469;SDS011;41334;47.872;16.384;2022-07-23T14:09:02;3.72;;;3.20;;
55469;SDS011;41334;47.872;16.384;2022-07-23T14:12:04;4.38;;;3.20;;
55469;SDS011;41334;47.872;16.384;2022-07-23T14:15:08;4.63;;;2.78;;
55469;SDS011;41334;47.872;16.384;2022-07-23T14:18:13;5.43;;;2.40;;
55469;SDS011;41334;47.872;16.384;2022-07-23T14:21:15;5.15;;;2.50;;
55469;SDS011;41334;47.872;16.384;2022-07-23T14:24:17;4.57;;;2.53;;
55469;SDS011;41334;47.872;16.384;2022-07-23T14:27:19;3.40;;;2.35;;
55469;SDS011;41334;47.872;16.384;2022-07-23T14:30:21;3.55;;;2.30;;
55469;SDS011;41334;47.872;16.384;2022-07-23T14:33:29;3.97;;;2.38;;
55469;SDS011;41334;47.872;16.384;2022-07-23T14:36:31;2.90;;;2.25;;
55469;SDS011;41334;47.872;16.384;2022-07-23T14:39:34;3.35;;;2.25;;
55469;SDS011;41334;47.872;16.384;2022-07-23T14:42:36;3.45;;;2.50;;
55469;SDS011;41334;47.872;16.384;2022-07-23T14:45:38;5.43;;;2.30;;
55469;SDS011;41334;47.872;16.384;2022-07-23T14:48:40;2.40;;;1.90;;
55469;SDS011;41334;47.872;16.384;2022-07-23T14:51:42;3.38;;;2.53;;
55469;SDS011;41334;47.872;16.384;2022-07-23T14:54:44;5.78;;;2.25;;
55469;SDS011;41334;47.872;16.384;2022-07-23T14:57:46;3.10;;;2.25;;
55469;SDS011;41334;47.872;16.384;2022-07-23T15:00:48;2.03;;;1.83;;
55469;SDS011;41334;47.872;16.384;2022-07-23T15:03:51;3.70;;;2.30;;
55469;SDS011;41334;47.872;16.384;2022-07-23T15:06:56;4.50;;;2.15;;
55469;SDS011;41334;47.872;16.384;2022-07-23T15:09:58;4.10;;;2.33;;
55469;SDS011;41334;47.872;16.384;2022-07-23T15:13:00;3.70;;;2.25;;
55469;SDS011;41334;47.872;16.384;2022-07-23T15:16:02;4.25;;;2.53;;
55469;SDS011;41334;47.872;16.384;2022-07-23T15:19:11;2.60;;;2.22;;
55469;SDS011;41334;47.872;16.384;2022-07-23T15:22:13;3.03;;;2.50;;
55469;SDS011;41334;47.872;16.384;2022-07-23T15:25:15;2.38;;;1.60;;
55469;SDS011;41334;47.872;16.384;2022-07-23T15:28:16;7.32;;;2.97;;
55469;SDS011;41334;47.872;16.384;2022-07-23T15:31:22;3.95;;;2.60;;
55469;SDS011;41334;47.872;16.384;2022-07-23T15:34:32;3.13;;;2.28;;
55469;SDS011;41334;47.872;16.384;2022-07-23T15:40:39;4.70;;;2.70;;
55469;SDS011;41334;47.872;16.384;2022-07-23T15:43:43;4.82;;;2.65;;
55469;SDS011;41334;47.872;16.384;2022-07-23T15:46:47;3.80;;;2.60;;
55469;SDS011;41334;47.872;16.384;2022-07-23T15:49:49;3.95;;;2.20;;
55469;SDS011;41334;47.872;16.384;2022-07-23T15:52:51;6.20;;;2.75;;
55469;SDS011;41334;47.872;16.384;2022-07-23T15:55:53;3.70;;;2.30;;
55469;SDS011;41334;47.872;16.384;2022-07-23T15:58:55;4.30;;;2.45;;
55469;SDS011;41334;47.872;16.384;2022-07-23T16:01:59;3.92;;;2.70;;
55469;SDS011;41334;47.872;16.384;2022-07-23T16:05:01;2.58;;;2.15;;
55469;SDS011;41334;47.872;16.384;2022-07-23T16:08:03;3.42;;;2.35;;
55469;SDS011;41334;47.872;16.384;2022-07-23T16:11:06;3.80;;;2.42;;
55469;SDS011;41334;47.872;16.384;2022-07-23T16:14:10;3.05;;;2.25;;
55469;SDS011;41334;47.872;16.384;2022-07-23T16:17:15;3.72;;;2.10;;
55469;SDS011;41334;47.872;16.384;2022-07-23T16:20:18;2.95;;;2.58;;
55469;SDS011;41334;47.872;16.384;2022-07-23T16:23:22;3.80;;;2.08;;
55469;SDS011;41334;47.872;16.384;2022-07-23T16:26:24;3.20;;;1.92;;
55469;SDS011;41334;47.872;16.384;2022-07-23T16:29:26;3.38;;;2.83;;
55469;SDS011;41334;47.872;16.384;2022-07-23T16:32:30;8.90;;;1.70;;
55469;SDS011;41334;47.872;16.384;2022-07-23T16:35:33;2.78;;;2.05;;
55469;SDS011;41334;47.872;16.384;2022-07-23T16:38:38;2.90;;;2.08;;
55469;SDS011;41334;47.872;16.384;2022-07-23T16:41:41;5.22;;;2.05;;
55469;SDS011;41334;47.872;16.384;2022-07-23T16:44:43;2.40;;;1.85;;
55469;SDS011;41334;47.872;16.384;2022-07-23T16:47:45;4.57;;;1.90;;
55469;SDS011;41334;47.872;16.384;2022-07-23T16:50:48;4.30;;;2.53;;
55469;SDS011;41334;47.872;16.384;2022-07-23T16:53:49;3.00;;;2.30;;
55469;SDS011;41334;47.872;16.384;2022-07-23T16:56:52;2.47;;;2.15;;
55469;SDS011;41334;47.872;16.384;2022-07-23T16:59:55;3.72;;;1.98;;
55469;SDS011;41334;47.872;16.384;2022-07-23T17:02:57;4.03;;;2.50;;
55469;SDS011;41334;47.872;16.384;2022-07-23T17:06:06;1.58;;;1.17;;
55469;SDS011;41334;47.872;16.384;2022-07-23T17:09:09;5.72;;;2.55;;
55469;SDS011;41334;47.872;16.384;2022-07-23T17:12:11;6.80;;;2.53;;
55469;SDS011;41334;47.872;16.384;2022-07-23T17:15:13;9.50;;;2.40;;
55469;SDS011;41334;47.872;16.384;2022-07-23T17:18:15;4.20;;;2.33;;
55469;SDS011;41334;47.872;16.384;2022-07-23T17:21:17;2.70;;;2.20;;
55469;SDS011;41334;47.872;16.384;2022-07-23T17:24:18;5.28;;;2.22;;
55469;SDS011;41334;47.872;16.384;2022-07-23T17:27:21;3.65;;;2.45;;
55469;SDS011;41334;47.872;16.384;2022-07-23T17:30:23;2.55;;;2.20;;
55469;SDS011;41334;47.872;16.384;2022-07-23T17:33:25;5.88;;;2.50;;
55469;SDS011;41334;47.872;16.384;2022-07-23T17:36:27;4.57;;;2.63;;
55469;SDS011;41334;47.872;16.384;2022-07-23T17:39:30;3.35;;;2.15;;
55469;SDS011;41334;47.872;16.384;2022-07-23T17:42:31;4.82;;;2.60;;
55469;SDS011;41334;47.872;16.384;2022-07-23T17:45:34;7.82;;;2.63;;
55469;SDS011;41334;47.872;16.384;2022-07-23T17:48:36;4.10;;;2.55;;
55469;SDS011;41334;47.872;16.384;2022-07-23T17:51:41;4.07;;;2.60;;
55469;SDS011;41334;47.872;16.384;2022-07-23T17:54:43;5.35;;;3.05;;
55469;SDS011;41334;47.872;16.384;2022-07-23T17:57:45;3.45;;;2.70;;
55469;SDS011;41334;47.872;16.384;2022-07-23T18:00:47;3.20;;;2.20;;
55469;SDS011;41334;47.872;16.384;2022-07-23T18:03:49;3.58;;;2.50;;
55469;SDS011;41334;47.872;16.384;2022-07-23T18:06:52;5.10;;;2.72;;
55469;SDS011;41334;47.872;16.384;2022-07-23T18:09:54;3.05;;;2.30;;
55469;SDS011;41334;47.872;16.384;2022-07-23T18:12:56;3.63;;;2.60;;
55469;SDS011;41334;47.872;16.384;2022-07-23T18:15:59;3.15;;;2.53;;
55469;SDS011;41334;47.872;16.384;2022-07-23T18:19:01;4.55;;;2.67;;
55469;SDS011;41334;47.872;16.384;2022-07-23T18:22:05;4.55;;;2.55;;
55469;SDS011;41334;47.872;16.384;2022-07-23T18:25:07;6.93;;;2.92;;
55469;SDS011;41334;47.872;16.384;2022-07-23T18:28:10;4.15;;;3.00;;
55469;SDS011;41334;47.872;16.384;2022-07-23T18:31:12;3.05;;;2.30;;
55469;SDS011;41334;47.872;16.384;2022-07-23T18:34:16;3.67;;;2.92;;
55469;SDS011;41334;47.872;16.384;2022-07-23T18:37:18;3.50;;;2.90;;
55469;SDS011;41334;47.872;16.384;2022-07-23T18:40:38;3.45;;;2.78;;
55469;SDS011;41334;47.872;16.384;2022-07-23T18:43:40;4.68;;;2.40;;